createdAt,value
2023-03-17T00:00:42.861Z,14.10
2023-03-17T00:03:24.736Z,17.90
2023-03-17T00:05:53.446Z,23.98
2023-03-17T00:08:23.541Z,18.95
2023-03-17T00:10:51.712Z,15.20
2023-03-17T00:13:19.592Z,9.13
2023-03-17T00:15:52.440Z,7.10
2023-03-17T00:18:20.003Z,7.65
2023-03-17T00:20:48.520Z,11.30
2023-03-17T00:23:20.687Z,14.82
2023-03-17T00:25:48.597Z,18.13
2023-03-17T00:28:21.085Z,17.27
2023-03-17T00:30:56.072Z,12.02
2023-03-17T00:33:34.676Z,13.13
2023-03-17T00:36:02.051Z,12.75
2023-03-17T00:38:29.757Z,20.70
2023-03-17T00:40:57.086Z,16.15
2023-03-17T00:43:24.162Z,18.85
2023-03-17T00:45:51.466Z,19.90
2023-03-17T00:48:20.800Z,20.42
2023-03-17T00:50:50.625Z,18.50
2023-03-17T00:53:20.683Z,18.20
2023-03-17T00:58:27.117Z,18.20
2023-03-17T01:00:55.296Z,18.80
2023-03-17T01:03:23.125Z,15.85
2023-03-17T01:05:50.557Z,15.07
2023-03-17T01:08:17.939Z,15.10
2023-03-17T01:10:45.754Z,14.02
2023-03-17T01:13:14.621Z,12.65
2023-03-17T01:15:47.694Z,11.60
2023-03-17T01:18:17.347Z,8.98
2023-03-17T01:20:44.992Z,9.95
2023-03-17T01:23:12.348Z,8.60
2023-03-17T01:25:42.742Z,9.30
2023-03-17T01:28:18.627Z,9.00
2023-03-17T01:30:46.290Z,7.63
2023-03-17T01:33:14.626Z,5.78
2023-03-17T01:35:46.249Z,6.53
2023-03-17T01:38:13.641Z,4.45
2023-03-17T01:40:46.866Z,4.38
2023-03-17T01:43:14.241Z,4.43
2023-03-17T01:46:18.627Z,5.10
2023-03-17T01:49:07.093Z,4.63
2023-03-17T01:51:43.254Z,8.75
2023-03-17T01:54:17.106Z,13.07
2023-03-17T01:56:49.059Z,11.10
2023-03-17T01:59:22.605Z,9.32
2023-03-17T02:01:52.590Z,11.80
2023-03-17T02:04:20.805Z,11.48
2023-03-17T02:06:57.822Z,12.50
2023-03-17T02:09:26.414Z,12.40
2023-03-17T02:11:54.585Z,13.55
2023-03-17T02:14:22.003Z,13.73
2023-03-17T02:16:49.518Z,15.23
2023-03-17T02:19:16.508Z,13.15
2023-03-17T02:21:53.977Z,10.50
2023-03-17T02:24:28.023Z,9.07
2023-03-17T02:26:58.407Z,9.73
2023-03-17T02:29:25.692Z,10.35
2023-03-17T02:31:53.473Z,11.02
2023-03-17T02:34:21.191Z,6.00
2023-03-17T02:36:48.582Z,5.20
2023-03-17T02:39:16.442Z,4.47
2023-03-17T02:41:43.809Z,5.57
2023-03-17T02:44:11.501Z,4.13
2023-03-17T02:46:38.874Z,4.43
2023-03-17T02:49:06.568Z,4.75
2023-03-17T02:51:33.533Z,5.03
2023-03-17T02:54:01.092Z,5.65
2023-03-17T02:56:28.432Z,5.07
2023-03-17T02:58:55.827Z,4.85
2023-03-17T03:01:23.169Z,3.53
2023-03-17T03:03:50.420Z,4.30
2023-03-17T03:06:17.649Z,3.95
2023-03-17T03:08:45.043Z,4.32
2023-03-17T03:11:12.235Z,4.65
2023-03-17T03:13:40.054Z,4.75
2023-03-17T03:16:07.428Z,5.38
2023-03-17T03:18:34.727Z,6.88
2023-03-17T03:21:01.959Z,9.43
2023-03-17T03:23:28.866Z,6.25
2023-03-17T03:25:56.533Z,5.65
2023-03-17T03:28:23.820Z,7.05
2023-03-17T03:30:51.041Z,6.97
2023-03-17T03:33:18.788Z,6.60
2023-03-17T03:35:46.102Z,7.25
2023-03-17T03:38:13.425Z,6.38
2023-03-17T03:40:40.438Z,5.07
2023-03-17T03:43:22.018Z,4.68
2023-03-17T03:45:50.803Z,5.28
2023-03-17T03:48:17.961Z,4.68
2023-03-17T03:50:45.419Z,3.53
2023-03-17T03:53:12.689Z,3.97
2023-03-17T03:55:40.038Z,4.80
2023-03-17T03:58:07.061Z,3.80
2023-03-17T04:00:34.596Z,4.18
2023-03-17T04:03:02.098Z,4.63
2023-03-17T04:05:29.673Z,5.45
2023-03-17T04:07:56.664Z,5.13
2023-03-17T04:10:23.994Z,4.60
2023-03-17T04:12:51.916Z,4.65
2023-03-17T04:15:20.566Z,5.20
2023-03-17T04:17:48.153Z,5.97
2023-03-17T04:20:16.075Z,5.35
2023-03-17T04:22:43.742Z,7.78
2023-03-17T04:25:13.610Z,5.22
2023-03-17T04:27:41.232Z,6.03
2023-03-17T04:30:09.047Z,4.13
2023-03-17T04:32:36.447Z,5.47
2023-03-17T04:35:03.812Z,5.03
2023-03-17T04:37:32.860Z,4.70
2023-03-17T04:40:02.381Z,4.38
2023-03-17T04:42:29.402Z,3.63
2023-03-17T04:44:56.708Z,4.68
2023-03-17T04:47:23.955Z,5.47
2023-03-17T04:49:51.423Z,8.93
2023-03-17T04:52:18.489Z,7.60
2023-03-17T04:54:45.860Z,9.32
2023-03-17T04:57:13.125Z,9.43
2023-03-17T04:59:40.225Z,7.57
2023-03-17T05:02:07.804Z,7.68
2023-03-17T05:04:35.154Z,11.93
2023-03-17T05:07:03.482Z,16.20
2023-03-17T05:09:30.781Z,16.00
2023-03-17T05:11:58.677Z,15.98
2023-03-17T05:14:26.006Z,15.43
2023-03-17T05:16:53.333Z,16.25
2023-03-17T05:19:20.441Z,17.77
2023-03-17T05:21:48.255Z,18.85
2023-03-17T05:24:15.778Z,18.55
2023-03-17T05:26:43.030Z,20.58
2023-03-17T05:29:10.715Z,20.88
2023-03-17T05:31:38.592Z,17.55
2023-03-17T05:34:05.719Z,19.08
2023-03-17T05:36:33.711Z,26.92
2023-03-17T05:39:01.093Z,31.58
2023-03-17T05:41:28.723Z,39.67
2023-03-17T05:43:56.294Z,55.50
2023-03-17T05:46:23.329Z,46.53
2023-03-17T05:48:50.365Z,54.45
2023-03-17T05:51:17.673Z,38.65
2023-03-17T05:53:45.996Z,40.08
2023-03-17T05:56:13.414Z,24.85
2023-03-17T05:58:40.748Z,14.93
2023-03-17T06:01:08.103Z,10.85
2023-03-17T06:03:38.355Z,11.23
2023-03-17T06:06:06.238Z,13.43
2023-03-17T06:08:33.242Z,39.50
2023-03-17T06:11:01.846Z,13.55
2023-03-17T06:13:29.291Z,10.35
2023-03-17T06:15:57.668Z,9.65
2023-03-17T06:18:25.024Z,9.05
2023-03-17T06:20:52.322Z,8.90
2023-03-17T06:23:19.754Z,6.03
2023-03-17T06:25:47.649Z,8.10
2023-03-17T06:28:15.098Z,8.55
2023-03-17T06:30:42.105Z,8.65
2023-03-17T06:33:10.238Z,6.90
2023-03-17T06:35:37.458Z,5.82
2023-03-17T06:38:08.300Z,6.18
2023-03-17T06:40:35.675Z,7.72
2023-03-17T06:43:03.253Z,10.90
2023-03-17T06:45:30.918Z,8.00
2023-03-17T06:47:58.816Z,8.80
2023-03-17T06:50:26.453Z,7.53
2023-03-17T06:52:53.874Z,9.93
2023-03-17T06:55:21.625Z,5.55
2023-03-17T06:57:51.198Z,8.02
2023-03-17T07:00:23.056Z,7.78
2023-03-17T07:02:51.329Z,8.85
2023-03-17T07:05:18.935Z,7.68
2023-03-17T07:07:46.546Z,7.10
2023-03-17T07:10:15.941Z,7.35
2023-03-17T07:12:44.836Z,6.10
2023-03-17T07:15:12.671Z,5.47
2023-03-17T07:17:40.469Z,6.47
2023-03-17T07:20:08.387Z,6.63
2023-03-17T07:22:35.974Z,4.55
2023-03-17T07:25:03.792Z,7.63
2023-03-17T07:27:31.481Z,6.18
2023-03-17T07:30:02.372Z,5.95
2023-03-17T07:32:30.173Z,8.80
2023-03-17T07:34:58.338Z,6.80
2023-03-17T07:37:26.053Z,9.25
2023-03-17T07:39:53.806Z,6.28
2023-03-17T07:42:21.845Z,6.80
2023-03-17T07:44:49.637Z,5.25
2023-03-17T07:47:17.678Z,7.43
2023-03-17T07:49:45.765Z,8.00
2023-03-17T07:52:13.574Z,5.50
2023-03-17T07:54:43.084Z,4.97
2023-03-17T07:57:11.844Z,7.15
2023-03-17T07:59:40.123Z,6.38
2023-03-17T08:02:08.606Z,4.65
2023-03-17T08:04:36.567Z,7.15
2023-03-17T08:07:06.471Z,5.05
2023-03-17T08:09:34.332Z,6.95
2023-03-17T08:12:03.570Z,4.55
2023-03-17T08:14:31.350Z,5.57
2023-03-17T08:16:59.330Z,5.60
2023-03-17T08:19:27.282Z,4.45
2023-03-17T08:21:55.164Z,5.05
2023-03-17T08:24:22.948Z,6.10
2023-03-17T08:26:50.707Z,6.00
2023-03-17T08:29:19.031Z,6.35
2023-03-17T08:31:46.946Z,6.53
2023-03-17T08:34:16.309Z,6.55
2023-03-17T08:36:44.132Z,5.97
2023-03-17T08:39:11.894Z,7.00
2023-03-17T08:41:41.495Z,4.00
2023-03-17T08:44:09.303Z,3.33
2023-03-17T08:46:37.099Z,5.50
2023-03-17T08:49:04.787Z,4.93
2023-03-17T08:51:34.824Z,4.75
2023-03-17T08:54:03.199Z,4.30
2023-03-17T08:56:31.065Z,5.40
2023-03-17T08:58:59.417Z,7.30
2023-03-17T09:01:27.637Z,6.40
2023-03-17T09:03:56.028Z,5.05
2023-03-17T09:06:24.328Z,4.97
2023-03-17T09:08:55.564Z,5.53
2023-03-17T09:11:32.026Z,6.80
2023-03-17T09:14:00.277Z,5.70
2023-03-17T09:16:28.803Z,4.60
2023-03-17T09:18:56.653Z,6.20
2023-03-17T09:21:24.579Z,7.85
2023-03-17T09:23:52.556Z,5.47
2023-03-17T09:26:20.582Z,5.80
2023-03-17T09:28:49.585Z,6.30
2023-03-17T09:31:17.489Z,5.32
2023-03-17T09:33:45.618Z,5.50
2023-03-17T09:36:13.847Z,4.25
2023-03-17T09:38:41.573Z,4.20
2023-03-17T09:41:21.116Z,5.22
2023-03-17T09:43:53.148Z,4.78
2023-03-17T09:46:23.966Z,3.15
2023-03-17T09:48:51.540Z,4.15
2023-03-17T09:51:20.285Z,4.72
2023-03-17T09:53:59.993Z,5.45
2023-03-17T09:56:29.406Z,2.83
2023-03-17T09:59:04.220Z,6.70
2023-03-17T10:01:32.363Z,4.55
2023-03-17T10:04:00.132Z,6.30
2023-03-17T10:06:47.544Z,4.78
2023-03-17T10:09:30.534Z,3.63
2023-03-17T10:12:11.122Z,3.10
2023-03-17T10:14:39.320Z,5.47
2023-03-17T10:17:07.064Z,4.97
2023-03-17T10:19:46.643Z,4.90
2023-03-17T10:22:49.076Z,5.95
2023-03-17T10:25:18.435Z,2.47
2023-03-17T10:28:08.840Z,4.68
2023-03-17T10:30:36.826Z,3.67
2023-03-17T10:33:08.611Z,3.90
2023-03-17T10:35:39.562Z,3.75
2023-03-17T10:38:34.344Z,5.00
2023-03-17T10:41:13.895Z,4.60
2023-03-17T10:43:53.763Z,3.70
2023-03-17T10:46:24.469Z,3.65
2023-03-17T10:49:16.879Z,3.28
2023-03-17T10:51:46.988Z,4.28
2023-03-17T10:54:18.895Z,3.80
2023-03-17T10:56:48.646Z,4.25
2023-03-17T10:59:26.530Z,3.58
2023-03-17T11:01:59.280Z,3.47
2023-03-17T11:04:44.142Z,4.90
2023-03-17T11:07:17.954Z,4.57
2023-03-17T11:09:50.942Z,3.92
2023-03-17T11:12:27.301Z,3.40
2023-03-17T11:15:07.135Z,3.92
2023-03-17T11:17:53.387Z,3.38
2023-03-17T11:21:05.224Z,4.28
2023-03-17T11:23:46.451Z,10.93
2023-03-17T11:26:46.872Z,10.85
2023-03-17T11:29:42.492Z,11.60
2023-03-17T11:32:13.087Z,9.60
2023-03-17T11:35:09.752Z,9.05
2023-03-17T11:37:37.396Z,3.90
2023-03-17T11:40:47.006Z,4.63
2023-03-17T11:43:20.762Z,2.88
2023-03-17T11:45:53.519Z,4.68
2023-03-17T11:49:01.028Z,4.50
2023-03-17T11:51:37.647Z,5.68
2023-03-17T11:54:20.368Z,4.88
2023-03-17T11:56:54.345Z,5.63
2023-03-17T11:59:27.192Z,6.25
2023-03-17T12:02:17.436Z,4.13
2023-03-17T12:05:10.000Z,4.03
2023-03-17T12:07:49.902Z,3.78
2023-03-17T12:10:17.601Z,3.22
2023-03-17T12:12:54.199Z,4.75
2023-03-17T12:15:43.900Z,4.78
2023-03-17T12:18:12.289Z,4.63
2023-03-17T12:20:43.037Z,3.80
2023-03-17T12:23:30.208Z,3.30
2023-03-17T12:26:01.536Z,4.43
2023-03-17T12:28:39.067Z,6.45
2023-03-17T12:31:33.824Z,4.55
2023-03-17T12:34:05.341Z,6.35
2023-03-17T12:36:35.904Z,6.28
2023-03-17T12:39:19.695Z,8.05
2023-03-17T12:42:19.806Z,4.45
2023-03-17T12:45:17.049Z,3.63
2023-03-17T12:48:15.038Z,5.50
2023-03-17T12:51:23.310Z,4.35
2023-03-17T12:53:51.865Z,4.15
2023-03-17T12:56:24.425Z,3.72
2023-03-17T12:58:53.345Z,4.03
2023-03-17T13:01:26.705Z,3.33
2023-03-17T13:04:03.496Z,3.30
2023-03-17T13:06:59.216Z,3.83
2023-03-17T13:09:32.441Z,4.68
2023-03-17T13:12:01.349Z,6.22
2023-03-17T13:14:47.016Z,6.10
2023-03-17T13:17:17.083Z,4.05
2023-03-17T13:20:18.381Z,3.95
2023-03-17T13:23:15.164Z,4.75
2023-03-17T13:25:43.031Z,4.18
2023-03-17T13:28:13.317Z,4.55
2023-03-17T13:30:40.524Z,4.68
2023-03-17T13:33:11.195Z,2.83
2023-03-17T13:35:54.163Z,5.28
2023-03-17T13:38:37.572Z,3.53
2023-03-17T13:41:08.075Z,5.18
2023-03-17T13:43:56.911Z,4.65
2023-03-17T13:46:48.429Z,4.97
2023-03-17T13:49:29.319Z,4.65
2023-03-17T13:52:11.646Z,4.85
2023-03-17T13:54:49.084Z,3.80
2023-03-17T13:57:26.619Z,4.15
2023-03-17T14:00:33.113Z,4.55
2023-03-17T14:03:17.542Z,5.72
2023-03-17T14:05:49.234Z,3.78
2023-03-17T14:08:32.779Z,3.95
2023-03-17T14:11:03.181Z,3.30
2023-03-17T14:13:45.071Z,3.42
2023-03-17T14:16:30.063Z,2.97
2023-03-17T14:19:30.007Z,3.50
2023-03-17T14:22:18.271Z,4.07
2023-03-17T14:24:45.491Z,3.65
2023-03-17T14:27:15.154Z,4.85
2023-03-17T14:32:18.801Z,2.88
2023-03-17T14:34:53.085Z,3.08
2023-03-17T14:37:21.965Z,3.35
2023-03-17T14:39:52.336Z,4.90
2023-03-17T14:42:26.955Z,4.55
2023-03-17T14:45:01.856Z,4.20
2023-03-17T14:47:37.526Z,3.33
2023-03-17T14:50:14.437Z,4.43
2023-03-17T14:52:42.053Z,3.65
2023-03-17T14:55:15.558Z,3.53
2023-03-17T14:57:43.373Z,4.35
2023-03-17T15:00:38.214Z,4.75
2023-03-17T15:03:19.244Z,5.13
2023-03-17T15:05:46.796Z,4.20
2023-03-17T15:08:34.577Z,7.38
2023-03-17T15:11:06.753Z,4.50
2023-03-17T15:13:37.353Z,4.75
2023-03-17T15:16:15.785Z,4.30
2023-03-17T15:18:43.340Z,5.28
2023-03-17T15:21:43.024Z,5.03
2023-03-17T15:24:33.427Z,4.93
2023-03-17T15:27:07.303Z,5.45
2023-03-17T15:29:34.901Z,7.68
2023-03-17T15:32:16.564Z,8.63
2023-03-17T15:34:44.181Z,5.85
2023-03-17T15:37:17.196Z,5.00
2023-03-17T15:39:44.866Z,6.10
2023-03-17T15:42:11.912Z,5.95
2023-03-17T15:44:39.152Z,8.13
2023-03-17T15:47:06.578Z,6.80
2023-03-17T15:49:35.064Z,8.23
2023-03-17T15:52:02.179Z,9.45
2023-03-17T15:54:29.560Z,6.28
2023-03-17T15:56:57.124Z,5.55
2023-03-17T15:59:24.097Z,5.30
2023-03-17T16:01:51.593Z,5.15
2023-03-17T16:04:19.133Z,6.38
2023-03-17T16:06:48.052Z,5.82
2023-03-17T16:09:17.973Z,5.95
2023-03-17T16:11:46.190Z,7.30
2023-03-17T16:14:14.153Z,6.43
2023-03-17T16:16:43.607Z,6.85
2023-03-17T16:19:21.756Z,5.78
2023-03-17T16:21:49.168Z,5.65
2023-03-17T16:24:18.868Z,5.07
2023-03-17T16:29:15.045Z,5.90
2023-03-17T16:31:42.767Z,9.68
2023-03-17T16:34:20.794Z,5.25
2023-03-17T16:36:48.696Z,4.28
2023-03-17T16:39:20.603Z,4.68
2023-03-17T16:41:48.400Z,4.25
2023-03-17T16:44:18.436Z,4.38
2023-03-17T16:46:46.173Z,5.63
2023-03-17T16:49:18.847Z,3.63
2023-03-17T16:51:46.263Z,4.43
2023-03-17T16:54:13.839Z,5.15
2023-03-17T16:56:41.933Z,4.25
2023-03-17T16:59:20.706Z,4.40
2023-03-17T17:01:48.227Z,5.22
2023-03-17T17:04:15.675Z,6.80
2023-03-17T17:06:42.995Z,5.88
2023-03-17T17:09:10.567Z,4.85
2023-03-17T17:11:37.989Z,5.32
2023-03-17T17:14:05.422Z,5.68
2023-03-17T17:16:36.104Z,6.22
2023-03-17T17:19:03.964Z,6.15
2023-03-17T17:21:32.002Z,4.60
2023-03-17T17:23:59.252Z,5.15
2023-03-17T17:26:27.012Z,5.85
2023-03-17T17:28:54.083Z,5.55
2023-03-17T17:31:21.191Z,4.70
2023-03-17T17:33:48.713Z,4.97
2023-03-17T17:36:17.161Z,5.15
2023-03-17T17:38:45.006Z,4.65
2023-03-17T17:41:13.072Z,5.10
2023-03-17T17:43:40.828Z,3.72
2023-03-17T17:46:26.145Z,6.28
2023-03-17T17:48:53.328Z,5.75
2023-03-17T17:51:20.732Z,5.32
2023-03-17T17:53:48.270Z,6.85
2023-03-17T17:56:16.589Z,5.57
2023-03-17T17:58:44.440Z,5.60
2023-03-17T18:01:14.225Z,6.72
2023-03-17T18:03:42.982Z,5.05
2023-03-17T18:06:10.389Z,5.10
2023-03-17T18:08:37.676Z,5.25
2023-03-17T18:11:05.652Z,5.80
2023-03-17T18:13:34.469Z,6.93
2023-03-17T18:16:02.028Z,4.82
2023-03-17T18:18:29.074Z,6.15
2023-03-17T18:20:56.391Z,4.35
2023-03-17T18:23:23.545Z,3.67
2023-03-17T18:25:50.859Z,4.25
2023-03-17T18:28:20.925Z,4.88
2023-03-17T18:30:48.283Z,4.70
2023-03-17T18:33:18.427Z,4.70
2023-03-17T18:35:48.712Z,4.78
2023-03-17T18:38:16.099Z,4.88
2023-03-17T18:40:43.816Z,5.88
2023-03-17T18:43:11.104Z,6.32
2023-03-17T18:45:38.734Z,5.95
2023-03-17T18:48:06.092Z,5.10
2023-03-17T18:50:33.792Z,6.95
2023-03-17T18:53:01.257Z,7.90
2023-03-17T18:55:28.461Z,7.22
2023-03-17T18:57:55.585Z,6.85
2023-03-17T19:00:25.290Z,7.03
2023-03-17T19:02:52.717Z,7.25
2023-03-17T19:05:20.422Z,8.00
2023-03-17T19:07:47.866Z,7.72
2023-03-17T19:10:15.427Z,7.55
2023-03-17T19:12:43.298Z,7.18
2023-03-17T19:15:12.605Z,7.40
2023-03-17T19:17:40.585Z,7.38
2023-03-17T19:20:08.794Z,8.50
2023-03-17T19:22:36.289Z,6.57
2023-03-17T19:25:04.400Z,5.55
2023-03-17T19:27:31.982Z,5.97
2023-03-17T19:29:59.410Z,6.00
2023-03-17T19:32:26.619Z,5.47
2023-03-17T19:34:54.088Z,6.07
2023-03-17T19:37:21.477Z,7.30
2023-03-17T19:39:48.893Z,6.38
2023-03-17T19:42:16.306Z,6.95
2023-03-17T19:44:43.793Z,6.72
2023-03-17T19:47:11.362Z,6.43
2023-03-17T19:49:38.754Z,6.57
2023-03-17T19:52:06.625Z,6.72
2023-03-17T19:54:34.275Z,6.50
2023-03-17T19:57:01.802Z,6.57
2023-03-17T19:59:29.248Z,6.95
2023-03-17T20:01:56.930Z,5.53
2023-03-17T20:04:24.435Z,6.50
2023-03-17T20:06:55.557Z,7.28
2023-03-17T20:09:25.469Z,5.57
2023-03-17T20:16:49.079Z,6.18
2023-03-17T20:19:16.834Z,8.50
2023-03-17T20:21:44.640Z,4.55
2023-03-17T20:24:14.913Z,4.38
2023-03-17T20:26:43.459Z,4.40
2023-03-17T20:29:14.268Z,3.47
2023-03-17T20:31:42.202Z,3.05
2023-03-17T20:34:10.192Z,2.85
2023-03-17T20:36:42.247Z,3.28
2023-03-17T20:39:13.252Z,3.30
2023-03-17T20:41:41.308Z,3.45
2023-03-17T20:44:08.649Z,4.07
2023-03-17T20:46:35.782Z,2.60
2023-03-17T20:49:04.154Z,3.15
2023-03-17T20:51:32.318Z,2.78
2023-03-17T20:54:00.814Z,3.20
2023-03-17T20:56:29.899Z,2.70
2023-03-17T20:58:58.538Z,2.28
2023-03-17T21:01:26.740Z,2.63
2023-03-17T21:03:53.812Z,3.10
2023-03-17T21:06:20.832Z,3.67
2023-03-17T21:08:48.554Z,3.53
2023-03-17T21:11:19.836Z,3.75
2023-03-17T21:13:47.734Z,3.42
2023-03-17T21:16:24.311Z,4.53
2023-03-17T21:18:51.715Z,3.47
2023-03-17T21:21:20.008Z,4.15
2023-03-17T21:23:47.589Z,4.22
2023-03-17T21:26:14.976Z,3.63
2023-03-17T21:28:42.688Z,3.10
2023-03-17T21:31:12.213Z,2.50
2023-03-17T21:33:39.597Z,1.90
2023-03-17T21:36:07.484Z,2.00
2023-03-17T21:38:34.920Z,2.25
2023-03-17T21:41:33.229Z,2.40
2023-03-17T21:44:01.475Z,1.80
2023-03-17T21:46:29.592Z,2.17
2023-03-17T21:48:57.136Z,2.05
2023-03-17T21:51:24.916Z,1.80
2023-03-17T21:53:53.065Z,2.10
2023-03-17T21:56:20.829Z,2.10
2023-03-17T21:58:49.070Z,1.65
2023-03-17T22:01:21.676Z,1.90
2023-03-17T22:03:49.690Z,1.83
2023-03-17T22:06:17.597Z,1.65
2023-03-17T22:08:45.759Z,2.50
2023-03-17T22:11:15.387Z,2.35
2023-03-17T22:13:43.639Z,1.23
2023-03-17T22:16:11.915Z,1.92
2023-03-17T22:18:39.016Z,1.67
2023-03-17T22:21:06.879Z,2.03
2023-03-17T22:23:39.688Z,2.08
2023-03-17T22:26:07.614Z,1.70
2023-03-17T22:28:35.153Z,1.85
2023-03-17T22:31:06.730Z,2.20
2023-03-17T22:33:34.253Z,1.92
2023-03-17T22:36:01.280Z,1.88
2023-03-17T22:38:28.420Z,1.45
2023-03-17T22:41:02.934Z,1.50
2023-03-17T22:43:30.496Z,1.88
2023-03-17T22:45:57.850Z,1.25
2023-03-17T22:48:24.958Z,1.30
2023-03-17T22:50:52.424Z,1.30
2023-03-17T22:53:19.573Z,1.73
2023-03-17T22:55:50.161Z,1.70
2023-03-17T22:58:17.503Z,1.27
2023-03-17T23:00:46.244Z,1.17
2023-03-17T23:03:13.556Z,1.42
2023-03-17T23:05:45.662Z,1.85
2023-03-17T23:08:12.973Z,1.75
2023-03-17T23:10:40.683Z,1.85
2023-03-17T23:13:08.979Z,1.40
2023-03-17T23:15:36.916Z,1.25
2023-03-17T23:18:04.618Z,2.17
2023-03-17T23:20:32.466Z,1.17
2023-03-17T23:22:59.961Z,2.03
2023-03-17T23:25:27.305Z,1.70
2023-03-17T23:27:54.790Z,1.90
2023-03-17T23:30:21.849Z,1.05
2023-03-17T23:32:49.373Z,2.25
2023-03-17T23:35:17.543Z,2.13
2023-03-17T23:37:44.986Z,1.60
2023-03-17T23:40:15.531Z,2.10
2023-03-17T23:42:43.088Z,1.05
2023-03-17T23:45:10.702Z,1.40
2023-03-17T23:47:38.598Z,1.80
2023-03-17T23:50:06.035Z,1.92
2023-03-17T23:52:33.346Z,2.08
2023-03-17T23:55:01.142Z,1.83
2023-03-17T23:57:28.481Z,1.85
2023-03-17T23:59:57.198Z,2.70
